Time;durP1;ratioP1;P1;durP2;ratioP2;P2;SDS_P1;SDS_P2;PMS_P1;PMS_P2;Temp;Humidity;BMP_temperature;BMP_pressure;BME280_temperature;BME280_humidity;BME280_pressure;Samples;Min_cycle;Max_cycle;Signal;HPM_P1;HPM_P2
2022/08/30 00:03:08;;;;;;;8.98;6.72;;;614.80;2432.00;;;;;;5069936;28;20036;-77
2022/08/30 00:05:34;;;;;;;12.02;6.97;;;614.80;2432.00;;;;;;5070744;28;20407;-76
2022/08/30 00:08:00;;;;;;;9.13;7.57;;;614.70;2432.00;;;;;;5070524;28;20035;-77
2022/08/30 00:10:27;;;;;;;12.20;8.02;;;614.80;2432.00;;;;;;5070879;28;20027;-77
2022/08/30 00:12:55;;;;;;;8.75;6.20;;;614.80;2432.00;;;;;;5053488;28;20481;-76
2022/08/30 00:15:21;;;;;;;8.07;7.13;;;614.80;2432.00;;;;;;5074541;28;20023;-76
2022/08/30 00:17:47;;;;;;;9.00;6.63;;;614.80;2432.00;;;;;;5048287;28;20373;-76
2022/08/30 00:20:17;;;;;;;11.65;6.75;;;614.80;2432.00;;;;;;5045102;28;20027;-78
2022/08/30 00:22:43;;;;;;;10.55;7.10;;;614.70;2432.00;;;;;;5074391;28;20525;-77
2022/08/30 00:25:09;;;;;;;8.68;6.55;;;615.10;2432.00;;;;;;5047764;28;20024;-76
2022/08/30 00:27:35;;;;;;;9.85;7.57;;;614.60;2432.00;;;;;;5045161;28;20120;-76
2022/08/30 00:30:01;;;;;;;11.02;7.13;;;614.70;2432.00;;;;;;5047950;28;20427;-77
2022/08/30 00:32:27;;;;;;;12.63;7.78;;;614.60;2432.00;;;;;;5074156;28;20081;-77
2022/08/30 00:34:53;;;;;;;9.13;7.35;;;614.60;2432.00;;;;;;5047602;28;20474;-77
2022/08/30 00:37:20;;;;;;;11.70;7.85;;;614.60;2432.00;;;;;;5074160;28;20023;-77
2022/08/30 00:39:46;;;;;;;10.75;7.65;;;614.80;2432.00;;;;;;5050500;28;20396;-76
2022/08/30 00:42:13;;;;;;;8.45;6.72;;;614.60;2432.00;;;;;;5047586;28;20077;-76
2022/08/30 00:44:40;;;;;;;9.43;7.28;;;614.60;2432.00;;;;;;5047600;28;20123;-77
2022/08/30 00:47:06;;;;;;;9.50;7.57;;;614.70;2432.00;;;;;;5073702;28;20020;-77
2022/08/30 00:49:35;;;;;;;10.52;7.15;;;614.80;2432.00;;;;;;5073958;28;20394;-76
2022/08/30 00:52:02;;;;;;;11.88;7.65;;;614.70;2432.00;;;;;;5044862;28;20454;-77
2022/08/30 00:54:29;;;;;;;10.90;7.45;;;614.70;2432.00;;;;;;5047488;28;20035;-77
2022/08/30 00:56:55;;;;;;;10.57;7.97;;;614.80;2432.00;;;;;;5054814;28;20037;-77
2022/08/30 00:59:23;;;;;;;9.25;7.60;;;614.60;2432.00;;;;;;5064362;28;20021;-76
2022/08/30 01:01:49;;;;;;;10.50;7.38;;;614.60;2432.00;;;;;;5043409;28;20090;-77
2022/08/30 01:04:18;;;;;;;12.82;7.65;;;614.60;2432.00;;;;;;5073343;28;20082;-76
2022/08/30 01:06:45;;;;;;;10.40;7.57;;;614.60;2432.00;;;;;;5055636;28;20492;-76
2022/08/30 01:09:11;;;;;;;12.73;7.75;;;614.60;2432.00;;;;;;5044721;28;20442;-77
2022/08/30 01:11:40;;;;;;;11.80;7.50;;;614.70;2432.00;;;;;;5062404;28;20027;-77
2022/08/30 01:14:07;;;;;;;12.75;8.32;;;614.70;2432.00;;;;;;5044447;28;20039;-77
2022/08/30 01:16:34;;;;;;;11.32;7.63;;;614.60;2432.00;;;;;;5073483;28;20032;-76
2022/08/30 01:19:00;;;;;;;10.43;7.22;;;614.60;2432.00;;;;;;5070494;28;20089;-76
2022/08/30 01:21:38;;;;;;;11.07;7.78;;;614.60;2432.00;;;;;;5073522;28;20048;-77
2022/08/30 01:24:05;;;;;;;12.52;7.40;;;614.60;2432.00;;;;;;5070817;28;20024;-76
2022/08/30 01:26:33;;;;;;;9.00;7.03;;;614.60;2432.00;;;;;;5072726;28;20024;-77
2022/08/30 01:29:04;;;;;;;9.77;6.85;;;614.60;2432.00;;;;;;5044171;28;20044;-76
2022/08/30 01:31:29;;;;;;;10.48;6.82;;;614.50;2432.00;;;;;;5072834;28;20386;-76
2022/08/30 01:33:55;;;;;;;10.05;7.55;;;614.50;2432.00;;;;;;5072907;28;20024;-76
2022/08/30 01:36:21;;;;;;;11.45;7.00;;;614.60;2432.00;;;;;;5072890;28;20013;-76
2022/08/30 01:38:55;;;;;;;9.65;7.43;;;614.50;2432.00;;;;;;5072945;28;20020;-76
2022/08/30 01:41:27;;;;;;;10.23;7.32;;;614.50;2432.00;;;;;;5070391;28;20066;-76
2022/08/30 01:43:55;;;;;;;9.43;6.65;;;614.50;2432.00;;;;;;5072599;28;20024;-76
2022/08/30 01:46:25;;;;;;;24.40;8.50;;;614.60;2432.00;;;;;;5070125;28;20058;-76
2022/08/30 01:48:54;;;;;;;9.77;6.80;;;614.50;2432.00;;;;;;5043702;28;20037;-76
2022/08/30 01:51:23;;;;;;;9.98;7.25;;;614.60;2432.00;;;;;;5069970;28;20474;-76
2022/08/30 01:53:49;;;;;;;9.68;6.85;;;614.60;2432.00;;;;;;5072323;28;20111;-77
2022/08/30 01:56:15;;;;;;;10.40;7.18;;;614.60;2432.00;;;;;;5071250;28;20525;-75
2022/08/30 01:58:41;;;;;;;7.75;6.78;;;614.60;2432.00;;;;;;5069962;28;20096;-76
2022/08/30 02:01:12;;;;;;;10.73;7.38;;;614.60;2432.00;;;;;;5072260;28;20034;-75
2022/08/30 02:03:40;;;;;;;10.68;6.68;;;614.60;2432.00;;;;;;5072475;28;20018;-76
2022/08/30 02:06:09;;;;;;;9.63;6.75;;;614.60;2432.00;;;;;;5072362;28;20100;-76
2022/08/30 02:08:36;;;;;;;11.43;7.25;;;614.60;2432.00;;;;;;5072369;28;20555;-76
2022/08/30 02:11:03;;;;;;;13.32;7.70;;;614.60;2432.00;;;;;;5069669;28;20533;-76
2022/08/30 02:13:29;;;;;;;8.85;6.88;;;614.60;2432.00;;;;;;5054194;28;20028;-76
2022/08/30 02:15:55;;;;;;;8.85;7.15;;;614.60;2432.00;;;;;;5072239;28;20081;-76
2022/08/30 02:18:22;;;;;;;10.77;8.30;;;614.70;2432.00;;;;;;5072225;28;20025;-76
2022/08/30 02:20:48;;;;;;;11.60;7.50;;;614.60;2432.00;;;;;;5071712;28;20036;-77
2022/08/30 02:23:15;;;;;;;8.63;7.55;;;614.70;2432.00;;;;;;5071987;28;20021;-76
2022/08/30 02:25:41;;;;;;;9.25;7.60;;;614.80;2432.00;;;;;;5071886;28;20051;-76
2022/08/30 02:28:07;;;;;;;12.70;7.72;;;614.60;2432.00;;;;;;5050204;28;20494;-76
2022/08/30 02:30:33;;;;;;;10.98;7.30;;;614.70;2432.00;;;;;;5067947;28;20444;-76
2022/08/30 02:32:59;;;;;;;13.23;8.82;;;614.60;2432.00;;;;;;5045280;28;20024;-77
2022/08/30 02:35:25;;;;;;;10.05;7.70;;;614.50;2432.00;;;;;;5071810;28;20026;-76
2022/08/30 02:37:51;;;;;;;10.50;7.85;;;614.50;2432.00;;;;;;5071643;28;20020;-76
2022/08/30 02:40:18;;;;;;;15.50;8.45;;;614.50;2432.00;;;;;;5071716;28;20523;-76
2022/08/30 02:42:44;;;;;;;17.05;9.23;;;614.50;2432.00;;;;;;5053886;28;20028;-76
2022/08/30 02:45:10;;;;;;;10.85;8.30;;;614.50;2432.00;;;;;;5045417;28;20044;-76
2022/08/30 02:47:36;;;;;;;13.25;8.55;;;614.60;2432.00;;;;;;5045484;28;20036;-77
2022/08/30 02:50:04;;;;;;;11.02;8.68;;;614.60;2432.00;;;;;;5071381;28;20021;-77
2022/08/30 02:52:30;;;;;;;13.05;8.68;;;614.80;2432.00;;;;;;5048197;28;20386;-76
2022/08/30 02:54:56;;;;;;;13.35;9.02;;;614.60;2432.00;;;;;;5052658;28;20139;-76
2022/08/30 02:57:22;;;;;;;10.13;8.38;;;614.40;2432.00;;;;;;5070178;28;20417;-76
2022/08/30 02:59:48;;;;;;;10.40;7.82;;;589.70;2432.00;;;;;;5053627;28;20082;-77
2022/08/30 03:02:15;;;;;;;12.65;8.80;;;589.60;2432.00;;;;;;5071514;28;20047;-77
2022/08/30 03:04:43;;;;;;;11.20;8.18;;;589.70;2432.00;;;;;;5071260;28;20096;-77
2022/08/30 03:07:09;;;;;;;10.60;8.82;;;614.40;2432.00;;;;;;5045074;28;20020;-76
2022/08/30 03:09:35;;;;;;;14.43;9.13;;;614.40;2432.00;;;;;;5071432;28;20028;-76
2022/08/30 03:12:01;;;;;;;12.73;9.93;;;614.40;2432.00;;;;;;5053100;28;20074;-76
2022/08/30 03:14:27;;;;;;;14.70;8.45;;;614.40;2432.00;;;;;;5053522;28;20024;-77
2022/08/30 03:16:54;;;;;;;11.35;9.43;;;614.40;2432.00;;;;;;5071088;28;20024;-77
2022/08/30 03:19:20;;;;;;;11.20;9.35;;;589.70;2432.00;;;;;;5071271;28;20017;-76
2022/08/30 03:21:45;;;;;;;11.38;9.27;;;614.40;2432.00;;;;;;5058716;28;20110;-76
2022/08/30 03:24:12;;;;;;;12.65;9.40;;;614.40;2432.00;;;;;;5071409;28;20439;-76
2022/08/30 03:26:38;;;;;;;14.45;9.55;;;589.70;2432.00;;;;;;5044846;28;20037;-76
2022/08/30 03:29:04;;;;;;;11.23;8.45;;;589.70;2432.00;;;;;;5070814;28;20110;-76
2022/08/30 03:31:29;;;;;;;10.25;8.35;;;589.70;2432.00;;;;;;5071234;28;20021;-76
2022/08/30 03:33:55;;;;;;;16.40;9.82;;;589.60;2432.00;;;;;;5044679;28;20762;-77
2022/08/30 03:36:21;;;;;;;14.02;8.77;;;589.50;2432.00;;;;;;5044813;28;20497;-76
2022/08/30 03:38:47;;;;;;;12.60;8.75;;;589.30;2432.00;;;;;;5050441;28;20055;-76
2022/08/30 03:41:12;;;;;;;13.68;9.20;;;589.20;2432.00;;;;;;5061640;28;20096;-76
2022/08/30 03:43:38;;;;;;;15.35;9.50;;;588.90;2432.00;;;;;;5043752;28;20036;-77
2022/08/30 03:46:04;;;;;;;10.82;9.18;;;564.10;2432.00;;;;;;5070921;28;20087;-76
2022/08/30 03:48:30;;;;;;;13.55;9.32;;;563.90;2432.00;;;;;;5072748;28;20024;-76
2022/08/30 03:50:56;;;;;;;12.00;10.10;;;563.70;2432.00;;;;;;5048469;28;20021;-76
2022/08/30 03:53:23;;;;;;;12.98;10.43;;;563.70;2432.00;;;;;;5074562;28;20028;-76
2022/08/30 03:55:49;;;;;;;12.13;9.38;;;563.60;2432.00;;;;;;5074769;28;20052;-77
2022/08/30 03:58:15;;;;;;;14.30;9.77;;;563.60;2432.00;;;;;;5074727;28;20386;-76
2022/08/30 04:00:40;;;;;;;14.48;11.18;;;563.60;2432.00;;;;;;5074784;28;20023;-76
2022/08/30 04:03:07;;;;;;;11.30;10.10;;;563.70;2432.00;;;;;;5074631;28;20021;-76
2022/08/30 04:05:34;;;;;;;13.73;10.90;;;563.70;2432.00;;;;;;5074604;28;20013;-76
2022/08/30 04:08:00;;;;;;;20.00;12.10;;;563.80;2432.00;;;;;;5074628;28;20032;-76
2022/08/30 04:10:26;;;;;;;11.45;10.23;;;563.80;2432.00;;;;;;5074436;28;20013;-76
2022/08/30 04:12:52;;;;;;;13.90;10.32;;;563.80;2432.00;;;;;;5074664;28;20428;-77
2022/08/30 04:15:18;;;;;;;12.93;10.70;;;563.70;2432.00;;;;;;5074409;28;20020;-76
2022/08/30 04:17:44;;;;;;;14.05;10.85;;;563.70;2432.00;;;;;;5072941;28;20020;-77
2022/08/30 04:20:10;;;;;;;13.93;10.75;;;563.80;2432.00;;;;;;5048154;28;20496;-76
2022/08/30 04:22:35;;;;;;;13.57;10.40;;;564.00;2432.00;;;;;;5074645;28;20021;-76
2022/08/30 04:25:02;;;;;;;17.73;10.85;;;564.00;2432.00;;;;;;5066511;28;20433;-76
2022/08/30 04:27:28;;;;;;;15.48;10.82;;;564.00;2432.00;;;;;;5059982;28;20032;-75
2022/08/30 04:29:54;;;;;;;12.55;11.25;;;564.10;2432.00;;;;;;5046155;28;20030;-76
2022/08/30 04:32:21;;;;;;;14.13;10.75;;;564.10;2432.00;;;;;;5055615;28;20385;-76
2022/08/30 04:34:46;;;;;;;12.10;10.80;;;564.10;2432.00;;;;;;5074027;28;20406;-76
2022/08/30 04:37:13;;;;;;;16.38;11.18;;;564.00;2432.00;;;;;;5045066;28;20021;-76
2022/08/30 04:39:39;;;;;;;16.02;11.05;;;564.00;2432.00;;;;;;5048036;28;20028;-76
2022/08/30 04:42:05;;;;;;;17.95;11.45;;;588.90;2432.00;;;;;;5047222;28;20037;-76
2022/08/30 04:44:31;;;;;;;18.33;11.20;;;564.00;2432.00;;;;;;5047437;28;20068;-77
2022/08/30 04:46:57;;;;;;;16.20;10.27;;;588.80;2432.00;;;;;;5073777;28;20413;-75
2022/08/30 04:49:23;;;;;;;16.02;11.02;;;588.90;2432.00;;;;;;5073460;28;20163;-76
2022/08/30 04:51:49;;;;;;;13.60;10.38;;;564.00;2432.00;;;;;;5073670;28;20112;-74
2022/08/30 04:54:15;;;;;;;14.77;11.15;;;588.80;2432.00;;;;;;5073448;28;20386;-74
2022/08/30 04:56:42;;;;;;;18.25;10.60;;;588.90;2432.00;;;;;;5073624;28;20051;-77
2022/08/30 04:59:08;;;;;;;14.18;10.38;;;588.80;2432.00;;;;;;5071055;28;20020;-77
2022/08/30 05:01:34;;;;;;;15.13;10.90;;;588.90;2432.00;;;;;;5073441;28;20119;-78
2022/08/30 05:04:00;;;;;;;15.15;10.85;;;588.90;2432.00;;;;;;5044384;28;20633;-75
2022/08/30 05:06:29;;;;;;;14.45;10.23;;;588.80;2432.00;;;;;;5047265;28;20047;-75
2022/08/30 05:08:55;;;;;;;16.13;10.38;;;588.90;2432.00;;;;;;5044363;28;20555;-78
2022/08/30 05:11:22;;;;;;;15.40;10.23;;;589.20;2432.00;;;;;;5073454;28;20051;-77
2022/08/30 05:13:48;;;;;;;17.30;10.23;;;589.20;2432.00;;;;;;5046894;28;20075;-76
2022/08/30 05:16:16;;;;;;;14.40;9.50;;;589.20;2432.00;;;;;;5072311;28;20024;-77
2022/08/30 05:18:43;;;;;;;15.82;10.02;;;589.40;2432.00;;;;;;5073862;28;20027;-77
2022/08/30 05:21:28;;;;;;;14.95;10.93;;;589.30;2432.00;;;;;;5065402;28;20031;-76
2022/08/30 05:23:56;;;;;;;17.50;13.20;;;589.20;2432.00;;;;;;5070914;28;20036;-78
2022/08/30 05:26:30;;;;;;;17.90;10.77;;;589.10;2432.00;;;;;;5073623;28;20502;-75
2022/08/30 05:28:56;;;;;;;14.48;11.45;;;589.00;2432.00;;;;;;5073438;28;20036;-78
2022/08/30 05:31:23;;;;;;;15.27;11.20;;;589.20;2432.00;;;;;;5055361;28;20082;-76
2022/08/30 05:33:50;;;;;;;15.45;11.23;;;589.20;2432.00;;;;;;5055303;28;20033;-78
2022/08/30 05:36:18;;;;;;;24.05;11.20;;;589.30;2432.00;;;;;;5073766;28;20028;-74
2022/08/30 05:38:44;;;;;;;16.35;10.38;;;589.30;2432.00;;;;;;5073568;28;20017;-75
2022/08/30 05:41:10;;;;;;;18.73;11.05;;;589.20;2432.00;;;;;;5073561;28;20029;-76
2022/08/30 05:43:36;;;;;;;15.27;10.82;;;589.30;2432.00;;;;;;5073500;28;20411;-79
2022/08/30 05:46:07;;;;;;;18.48;11.43;;;589.40;2432.00;;;;;;5073356;28;20040;-73
2022/08/30 05:48:34;;;;;;;18.30;11.25;;;589.50;2432.00;;;;;;5073539;28;20029;-76
2022/08/30 05:51:18;;;;;;;21.33;11.23;;;589.40;2432.00;;;;;;5073283;28;20391;-76
2022/08/30 05:53:44;;;;;;;12.90;9.75;;;589.50;2432.00;;;;;;5073343;28;20039;-75
2022/08/30 05:56:14;;;;;;;16.92;9.65;;;589.60;2432.00;;;;;;5051447;28;20124;-78
2022/08/30 05:58:40;;;;;;;16.38;10.82;;;589.70;2432.00;;;;;;5062745;28;20032;-76
2022/08/30 06:01:07;;;;;;;16.52;10.73;;;589.60;2432.00;;;;;;5072840;28;20213;-78
2022/08/30 06:03:32;;;;;;;13.88;10.20;;;589.70;2432.00;;;;;;5044089;28;20103;-77
2022/08/30 06:05:59;;;;;;;12.82;9.55;;;589.70;2432.00;;;;;;5069871;28;20052;-76
2022/08/30 06:08:25;;;;;;;11.63;9.68;;;589.60;2432.00;;;;;;5072868;28;20021;-78
2022/08/30 06:10:51;;;;;;;23.88;9.85;;;589.70;2432.00;;;;;;5058652;28;20080;-79
2022/08/30 06:13:17;;;;;;;16.13;10.65;;;614.40;2432.00;;;;;;5072892;28;20100;-77
2022/08/30 06:15:44;;;;;;;19.27;10.80;;;589.70;2432.00;;;;;;5055355;28;20039;-76
2022/08/30 06:18:11;;;;;;;12.90;10.10;;;589.70;2432.00;;;;;;5072648;28;20070;-76
2022/08/30 06:20:42;;;;;;;13.40;10.07;;;614.40;2432.00;;;;;;5072492;28;20415;-75
2022/08/30 06:23:09;;;;;;;14.13;10.02;;;614.40;2432.00;;;;;;5072728;28;20497;-76
2022/08/30 06:25:36;;;;;;;13.02;10.20;;;614.40;2432.00;;;;;;5054107;28;20367;-76
2022/08/30 06:28:04;;;;;;;12.45;9.93;;;614.50;2432.00;;;;;;5054483;28;20041;-76
2022/08/30 06:30:29;;;;;;;19.75;10.88;;;614.40;2432.00;;;;;;5072564;28;20028;-76
2022/08/30 06:32:55;;;;;;;18.38;10.55;;;614.50;2432.00;;;;;;5072755;28;20463;-76
2022/08/30 06:35:21;;;;;;;17.85;11.02;;;614.50;2432.00;;;;;;5072351;28;20070;-76
2022/08/30 06:37:46;;;;;;;13.93;10.25;;;614.50;2432.00;;;;;;5072810;28;20517;-79
2022/08/30 06:40:13;;;;;;;13.20;10.70;;;614.50;2432.00;;;;;;5072351;28;20021;-76
2022/08/30 06:42:38;;;;;;;15.32;10.55;;;614.50;2432.00;;;;;;5072571;28;20032;-78
2022/08/30 06:45:05;;;;;;;14.85;10.48;;;614.50;2432.00;;;;;;5072553;28;20020;-78
2022/08/30 06:47:31;;;;;;;12.85;10.50;;;614.60;2432.00;;;;;;5072234;28;20024;-77
2022/08/30 06:49:57;;;;;;;13.60;10.57;;;614.70;2432.00;;;;;;5062531;28;20074;-80
2022/08/30 06:52:23;;;;;;;15.25;10.38;;;614.60;2432.00;;;;;;5035749;28;20028;-76
2022/08/30 06:54:49;;;;;;;14.00;11.32;;;614.60;2432.00;;;;;;5064431;28;20167;-76
2022/08/30 06:57:15;;;;;;;15.77;11.75;;;614.70;2432.00;;;;;;5053901;28;20598;-76
2022/08/30 06:59:40;;;;;;;20.20;14.15;;;614.70;2432.00;;;;;;5070317;28;20067;-76
2022/08/30 07:02:07;;;;;;;16.95;11.63;;;614.70;2432.00;;;;;;5072149;28;20054;-76
2022/08/30 07:04:33;;;;;;;15.52;11.85;;;614.70;2432.00;;;;;;5039737;28;20036;-82
2022/08/30 07:06:59;;;;;;;16.90;11.50;;;614.80;2432.00;;;;;;5063987;28;20025;-77
2022/08/30 07:09:25;;;;;;;15.48;11.25;;;614.80;2432.00;;;;;;5034360;28;20037;-77
2022/08/30 07:11:52;;;;;;;14.13;10.98;;;614.70;2432.00;;;;;;5072063;28;20029;-80
2022/08/30 07:14:19;;;;;;;13.48;11.10;;;614.80;2432.00;;;;;;5072050;28;20390;-77
2022/08/30 07:16:45;;;;;;;15.38;11.23;;;614.80;2432.00;;;;;;5072137;28;20426;-75
2022/08/30 07:19:10;;;;;;;19.08;12.68;;;614.80;2432.00;;;;;;5071868;28;20052;-76
2022/08/30 07:21:44;;;;;;;15.77;10.93;;;614.80;2432.00;;;;;;5072111;28;20017;-75
2022/08/30 07:24:11;;;;;;;15.00;11.60;;;614.80;2432.00;;;;;;5071208;28;20059;-75
2022/08/30 07:26:40;;;;;;;19.35;11.60;;;615.00;2432.00;;;;;;5072159;28;20061;-80
2022/08/30 07:29:08;;;;;;;14.60;11.40;;;615.00;2432.00;;;;;;5071530;28;20094;-76
2022/08/30 07:31:35;;;;;;;15.57;12.30;;;615.00;2432.00;;;;;;5071810;28;20019;-75
2022/08/30 07:34:05;;;;;;;15.80;11.65;;;615.10;2432.00;;;;;;5071826;28;20483;-79
2022/08/30 07:36:31;;;;;;;15.82;12.30;;;640.10;2432.00;;;;;;5053262;28;20486;-76
2022/08/30 07:38:57;;;;;;;13.77;11.60;;;615.20;2432.00;;;;;;5071856;28;20028;-77
2022/08/30 07:41:31;;;;;;;16.08;11.13;;;615.30;2432.00;;;;;;5071563;28;20100;-79
2022/08/30 07:43:57;;;;;;;16.25;11.52;;;615.30;2432.00;;;;;;5049432;28;20489;-81
2022/08/30 07:46:24;;;;;;;14.82;11.35;;;615.30;2432.00;;;;;;5061994;28;20032;-78
2022/08/30 07:48:50;;;;;;;15.50;12.25;;;615.30;2432.00;;;;;;5071864;28;20037;-76
2022/08/30 07:51:21;;;;;;;15.40;12.52;;;615.30;2432.00;;;;;;5071029;28;20099;-75
2022/08/30 07:53:47;;;;;;;15.32;13.23;;;640.00;2432.00;;;;;;5070799;28;20025;-77
2022/08/30 07:56:14;;;;;;;14.20;11.88;;;640.10;2432.00;;;;;;5070032;28;20044;-76
2022/08/30 07:58:40;;;;;;;15.75;10.95;;;640.10;2432.00;;;;;;5067319;28;20039;-79
2022/08/30 08:01:08;;;;;;;15.43;13.40;;;640.20;2432.00;;;;;;5061134;28;20091;-79
2022/08/30 08:03:34;;;;;;;14.43;11.48;;;640.20;2432.00;;;;;;5070730;28;21013;-75
2022/08/30 08:06:03;;;;;;;15.52;11.77;;;640.20;2432.00;;;;;;5068148;28;20013;-75
2022/08/30 08:08:29;;;;;;;17.88;11.95;;;640.20;2432.00;;;;;;5071180;28;20029;-75
2022/08/30 08:10:55;;;;;;;14.00;11.73;;;640.40;2432.00;;;;;;5071499;28;20021;-75
2022/08/30 08:13:22;;;;;;;13.68;11.27;;;640.50;2432.00;;;;;;5071014;28;20031;-76
2022/08/30 08:15:48;;;;;;;15.57;12.38;;;640.30;2432.00;;;;;;5057379;28;20021;-75
2022/08/30 08:18:14;;;;;;;15.40;9.93;;;640.60;2432.00;;;;;;5070749;28;20040;-76
2022/08/30 08:20:40;;;;;;;13.30;10.32;;;640.50;2432.00;;;;;;5069400;28;20056;-75
2022/08/30 08:23:05;;;;;;;17.30;12.32;;;640.60;2432.00;;;;;;5069077;28;20029;-76
2022/08/30 08:25:32;;;;;;;14.00;11.15;;;640.60;2432.00;;;;;;5054303;28;20013;-76
2022/08/30 08:27:57;;;;;;;15.50;10.68;;;640.80;2432.00;;;;;;5070566;28;20056;-75
2022/08/30 08:30:23;;;;;;;19.52;12.02;;;640.70;2432.00;;;;;;5059189;28;20064;-75
2022/08/30 08:32:50;;;;;;;13.50;10.27;;;640.70;2432.00;;;;;;5065636;28;20432;-80
2022/08/30 08:35:16;;;;;;;17.13;10.02;;;665.60;2432.00;;;;;;5064402;28;20382;-82
2022/08/30 08:37:43;;;;;;;13.00;10.35;;;665.60;2432.00;;;;;;5074736;28;20024;-76
2022/08/30 08:40:14;;;;;;;14.88;10.90;;;665.60;2432.00;;;;;;5074821;28;20031;-74
2022/08/30 08:42:55;;;;;;;15.00;10.50;;;640.90;2432.00;;;;;;5060502;28;20021;-76
2022/08/30 08:45:59;;;;;;;19.73;10.23;;;665.70;2432.00;;;;;;5074769;28;20153;-75
2022/08/30 08:48:32;;;;;;;13.18;10.20;;;665.70;2432.00;;;;;;5043696;28;20044;-75
2022/08/30 08:53:50;;;;;;;16.70;10.02;;;665.90;2432.00;;;;;;5066426;28;20433;-81
2022/08/30 08:56:18;;;;;;;17.33;10.55;;;665.90;2432.00;;;;;;5067539;28;20076;-80
2022/08/30 08:58:50;;;;;;;17.55;9.90;;;665.90;2432.00;;;;;;5071176;28;20032;-75
2022/08/30 09:01:19;;;;;;;17.13;9.70;;;666.00;2432.00;;;;;;5046976;28;20020;-75
2022/08/30 09:03:46;;;;;;;14.82;10.75;;;666.00;2432.00;;;;;;5071285;28;20032;-76
2022/08/30 09:06:42;;;;;;;12.52;10.80;;;666.00;2432.00;;;;;;5044504;28;20029;-75
2022/08/30 09:09:08;;;;;;;13.63;10.03;;;666.00;2432.00;;;;;;5071748;28;20021;-76
2022/08/30 09:11:36;;;;;;;17.98;10.88;;;666.00;2432.00;;;;;;5073117;28;20501;-75
2022/08/30 09:14:07;;;;;;;15.82;10.45;;;666.10;2432.00;;;;;;5073007;28;20048;-77
2022/08/30 09:16:53;;;;;;;13.07;9.82;;;666.10;2432.00;;;;;;5073985;28;20565;-78
2022/08/30 09:19:32;;;;;;;16.15;10.82;;;666.30;2432.00;;;;;;5056194;28;20032;-76
2022/08/30 09:22:00;;;;;;;14.88;10.48;;;666.30;2432.00;;;;;;5060878;28;20039;-77
2022/08/30 09:24:26;;;;;;;20.45;9.93;;;666.40;2432.00;;;;;;5073837;28;20100;-76
2022/08/30 09:26:52;;;;;;;16.23;10.95;;;666.40;2432.00;;;;;;5068218;28;20115;-76
2022/08/30 09:29:19;;;;;;;13.93;8.40;;;666.40;2432.00;;;;;;5065570;28;20437;-76
2022/08/30 09:31:52;;;;;;;16.30;9.50;;;666.50;2432.00;;;;;;5073573;28;20028;-76
2022/08/30 09:34:21;;;;;;;15.93;9.80;;;666.50;2432.00;;;;;;5055997;28;20430;-76
2022/08/30 09:36:50;;;;;;;13.75;9.57;;;666.50;2432.00;;;;;;5055455;28;20099;-78
2022/08/30 09:39:25;;;;;;;15.18;8.88;;;666.50;2432.00;;;;;;5063815;28;20021;-77
2022/08/30 09:41:51;;;;;;;12.97;9.53;;;666.50;2432.00;;;;;;5070814;28;20397;-78
2022/08/30 09:44:23;;;;;;;14.43;9.02;;;666.40;2432.00;;;;;;5064486;28;20108;-79
2022/08/30 09:46:53;;;;;;;12.65;8.82;;;666.50;2432.00;;;;;;5068914;28;20374;-77
2022/08/30 09:49:36;;;;;;;13.02;8.65;;;666.50;2432.00;;;;;;5055072;28;20032;-76
2022/08/30 09:52:14;;;;;;;13.43;8.55;;;666.50;2432.00;;;;;;5069828;28;20382;-77
2022/08/30 09:55:14;;;;;;;11.35;7.70;;;691.20;2432.00;;;;;;5072477;28;20105;-76
2022/08/30 09:57:51;;;;;;;13.70;8.85;;;691.30;2432.00;;;;;;5070956;28;20128;-76
2022/08/30 10:00:20;;;;;;;10.23;8.00;;;691.20;2432.00;;;;;;5072545;28;20445;-76
2022/08/30 10:03:02;;;;;;;13.95;8.30;;;691.30;2432.00;;;;;;5069687;28;20023;-76
2022/08/30 10:05:33;;;;;;;11.05;7.90;;;691.30;2432.00;;;;;;5070335;28;20028;-78
2022/08/30 10:08:11;;;;;;;9.77;8.00;;;691.30;2432.00;;;;;;5072305;28;20036;-75
2022/08/30 10:10:42;;;;;;;15.43;8.93;;;;;;;;;;5072867;28;20043;-75
2022/08/30 10:13:33;;;;;;;16.10;8.75;;;691.40;2432.00;;;;;;5073030;28;20029;-74
2022/08/30 10:16:29;;;;;;;9.70;7.60;;;691.40;2432.00;;;;;;5071568;28;20359;-74
2022/08/30 10:19:05;;;;;;;10.45;6.68;;;691.50;2432.00;;;;;;5070524;28;20390;-74
2022/08/30 10:21:33;;;;;;;;;;;691.40;2432.00;;;;;;5067132;28;20021;-74
2022/08/30 10:24:10;;;;;;;13.15;7.70;;;691.40;2432.00;;;;;;5072257;28;20358;-75
2022/08/30 10:26:44;;;;;;;9.10;6.30;;;691.40;2432.00;;;;;;5068755;28;20035;-74
2022/08/30 10:29:16;;;;;;;8.15;5.78;;;691.50;2432.00;;;;;;5071767;28;20516;-77
2022/08/30 10:32:14;;;;;;;10.65;6.45;;;691.60;2432.00;;;;;;5069352;28;20134;-75
2022/08/30 10:34:56;;;;;;;12.27;7.07;;;691.70;2432.00;;;;;;5069432;28;20048;-74
2022/08/30 10:37:28;;;;;;;8.90;6.82;;;691.50;2432.00;;;;;;5069149;28;20071;-75
2022/08/30 10:41:11;;;;;;;15.52;6.35;;;691.70;2432.00;;;;;;5063007;28;20033;-76
2022/08/30 10:42:48;;;;;;;9.43;6.78;;;691.70;2432.00;;;;;;5068985;28;20474;-74
2022/08/30 10:45:15;;;;;;;9.90;6.72;;;691.80;2432.00;;;;;;5071679;28;20027;-75
2022/08/30 10:47:59;;;;;;;9.90;6.55;;;691.80;2432.00;;;;;;5071222;28;20101;-78
2022/08/30 10:50:31;;;;;;;8.80;6.57;;;691.90;2432.00;;;;;;5068760;28;20093;-74
2022/08/30 10:53:14;;;;;;;9.50;6.35;;;691.90;2432.00;;;;;;5071607;28;20107;-74
2022/08/30 10:55:50;;;;;;;12.68;6.22;;;691.90;2432.00;;;;;;5070540;28;20085;-78
2022/08/30 10:58:17;;;;;;;10.85;6.18;;;692.00;2432.00;;;;;;5071243;28;20028;-77
2022/08/30 11:00:42;;;;;;;9.65;5.68;;;691.90;2432.00;;;;;;5042441;28;20016;-76
2022/08/30 11:03:35;;;;;;;9.85;6.78;;;692.10;2432.00;;;;;;5071035;28;20024;-73
2022/08/30 11:06:19;;;;;;;8.27;6.18;;;716.80;2432.00;;;;;;5070288;28;20017;-74
2022/08/30 11:09:02;;;;;;;8.10;6.25;;;716.80;2432.00;;;;;;5068330;28;20478;-74
2022/08/30 11:11:37;;;;;;;10.80;6.78;;;716.90;2432.00;;;;;;5067207;28;20032;-74
2022/08/30 11:14:05;;;;;;;14.50;6.10;;;717.10;2432.00;;;;;;5069083;28;20020;-73
2022/08/30 11:16:52;;;;;;;8.27;5.57;;;717.10;2432.00;;;;;;5070972;28;20070;-74
2022/08/30 11:19:20;;;;;;;9.57;6.50;;;717.70;2432.00;;;;;;5068117;28;20017;-74
2022/08/30 11:21:47;;;;;;;9.80;7.05;;;;;;;;;;5059384;28;20021;-74
2022/08/30 11:24:19;;;;;;;11.27;6.20;;;742.80;2432.00;;;;;;5069234;28;20024;-74
2022/08/30 11:26:48;;;;;;;7.80;5.32;;;743.10;2329.60;;;;;;5068193;28;20024;-74
2022/08/30 11:29:29;;;;;;;7.47;5.82;;;743.20;2380.80;;;;;;5070081;28;20085;-74
2022/08/30 11:32:17;;;;;;;6.97;5.38;;;768.30;2124.80;;;;;;5070674;28;20021;-74
2022/08/30 11:34:46;;;;;;;7.72;5.20;;;;;;;;;;5070282;28;20140;-74
2022/08/30 11:37:34;;;;;;;8.60;4.80;;;;;;;;;;5047358;28;20119;-74
2022/08/30 11:40:23;;;;;;;8.70;5.18;;;768.90;1996.80;;;;;;5048858;28;20029;-75
2022/08/30 11:42:51;;;;;;;12.32;6.00;;;793.90;2022.40;;;;;;5068947;28;20031;-74
2022/08/30 11:45:44;;;;;;;6.43;4.75;;;768.90;2022.40;;;;;;5067921;28;20027;-74
2022/08/30 11:48:37;;;;;;;6.47;4.43;;;794.00;1868.80;;;;;;5060494;28;20045;-77
2022/08/30 11:51:22;;;;;;;7.20;4.88;;;794.20;1920.00;;;;;;5066004;28;20370;-74
2022/08/30 11:54:09;;;;;;;7.28;4.60;;;768.90;1971.20;;;;;;5051322;28;20108;-74
2022/08/30 11:56:46;;;;;;;5.72;4.00;;;768.80;1920.00;;;;;;5068272;28;20556;-74
2022/08/30 11:59:43;;;;;;;7.72;4.57;;;768.90;1894.40;;;;;;5070755;28;20036;-75
2022/08/30 12:02:08;;;;;;;;;;;793.70;1971.20;;;;;;5051083;28;20025;-74
2022/08/30 12:04:55;;;;;;;;;;;819.30;1740.80;;;;;;5053498;28;19958;-75
2022/08/30 12:07:59;;;;;;;5.75;4.07;;;819.50;1920.00;;;;;;5053097;28;19908;-74
2022/08/30 12:10:44;;;;;;;5.32;3.65;;;819.30;1638.40;;;;;;5063739;28;20021;-75
2022/08/30 12:13:33;;;;;;;6.22;3.47;;;819.30;1638.40;;;;;;5053536;28;20035;-74
2022/08/30 12:16:03;;;;;;;6.63;3.55;;;794.50;1689.60;;;;;;5067444;28;20024;-74
2022/08/30 12:18:49;;;;;;;6.15;4.32;;;819.30;1689.60;;;;;;5048010;28;20023;-74
2022/08/30 12:21:21;;;;;;;10.20;4.03;;;819.60;1638.40;;;;;;5063109;28;20032;-75
2022/08/30 12:24:12;;;;;;;5.70;3.83;;;819.90;1612.80;;;;;;5073983;28;20032;-75
2022/08/30 12:26:41;;;;;;;5.93;4.07;;;819.90;1561.60;;;;;;5047836;28;20024;-74